createdAt,value
2023-02-06T00:01:48.928Z,3.85
2023-02-06T00:04:10.466Z,3.81
2023-02-06T00:06:32.301Z,3.87
2023-02-06T00:08:53.744Z,3.82
2023-02-06T00:11:16.915Z,3.78
2023-02-06T00:13:38.669Z,3.82
2023-02-06T00:16:00.385Z,3.81
2023-02-06T00:18:21.828Z,3.82
2023-02-06T00:20:43.267Z,3.81
2023-02-06T00:23:05.170Z,3.72
2023-02-06T00:25:26.601Z,3.77
2023-02-06T00:27:48.088Z,3.80
2023-02-06T00:30:09.900Z,3.84
2023-02-06T00:32:31.433Z,3.86
2023-02-06T00:34:52.858Z,3.88
2023-02-06T00:37:14.772Z,3.94
2023-02-06T00:39:36.247Z,3.92
2023-02-06T00:41:57.666Z,3.92
2023-02-06T00:44:19.149Z,3.91
2023-02-06T00:46:40.660Z,3.92
2023-02-06T00:49:02.221Z,3.93
2023-02-06T00:51:23.676Z,3.90
2023-02-06T00:53:45.271Z,3.81
2023-02-06T00:56:06.868Z,3.77
2023-02-06T00:58:28.298Z,3.62
2023-02-06T01:00:49.902Z,3.64
2023-02-06T01:03:11.505Z,3.69
2023-02-06T01:05:33.049Z,3.71
2023-02-06T01:07:54.630Z,3.71
2023-02-06T01:10:16.382Z,3.79
2023-02-06T01:12:37.901Z,3.78
2023-02-06T01:14:59.418Z,3.67
2023-02-06T01:17:20.870Z,3.62
2023-02-06T01:19:42.311Z,3.66
2023-02-06T01:22:04.141Z,3.67
2023-02-06T01:24:25.575Z,3.75
2023-02-06T01:26:46.993Z,3.82
2023-02-06T01:29:08.433Z,3.79
2023-02-06T01:31:31.171Z,3.76
2023-02-06T01:33:52.844Z,3.78
2023-02-06T01:36:14.817Z,3.56
2023-02-06T01:38:36.391Z,3.67
2023-02-06T01:40:59.416Z,3.65
2023-02-06T01:43:20.882Z,3.57
2023-02-06T01:45:44.083Z,3.47
2023-02-06T01:48:10.341Z,3.48
2023-02-06T01:50:34.061Z,3.48
2023-02-06T01:52:55.739Z,3.35
2023-02-06T01:55:17.711Z,3.27
2023-02-06T01:57:40.258Z,3.43
2023-02-06T02:00:07.520Z,3.34
2023-02-06T02:02:29.526Z,3.40
2023-02-06T02:04:51.065Z,3.49
2023-02-06T02:07:28.712Z,3.50
2023-02-06T02:09:50.172Z,3.53
2023-02-06T02:12:11.878Z,3.53
2023-02-06T02:14:33.960Z,3.59
2023-02-06T02:17:20.391Z,3.64
2023-02-06T02:20:11.095Z,3.62
2023-02-06T02:22:55.169Z,3.66
2023-02-06T02:25:22.290Z,3.69
2023-02-06T02:28:05.757Z,3.72
2023-02-06T02:30:59.339Z,3.73
2023-02-06T02:33:27.025Z,3.83
2023-02-06T02:35:59.984Z,3.79
2023-02-06T02:38:50.567Z,3.83
2023-02-06T02:41:27.100Z,3.82
2023-02-06T02:44:10.958Z,3.88
2023-02-06T02:46:40.352Z,3.88
2023-02-06T02:49:10.844Z,3.90
2023-02-06T02:51:33.996Z,3.94
2023-02-06T02:53:58.548Z,3.94
2023-02-06T02:56:23.080Z,3.95
2023-02-06T02:58:47.878Z,3.95
2023-02-06T03:01:14.112Z,3.88
2023-02-06T03:03:38.716Z,3.79
2023-02-06T03:06:30.580Z,3.50
2023-02-06T03:09:13.044Z,3.65
2023-02-06T03:11:41.324Z,3.69
2023-02-06T03:14:05.505Z,3.80
2023-02-06T03:16:35.412Z,3.84
2023-02-06T03:19:14.440Z,3.75
2023-02-06T03:21:38.014Z,3.64
2023-02-06T03:24:03.548Z,3.54
2023-02-06T03:26:28.742Z,3.59
2023-02-06T03:28:55.194Z,3.67
2023-02-06T03:31:23.679Z,3.75
2023-02-06T03:33:54.575Z,3.80
2023-02-06T03:36:18.385Z,3.75
2023-02-06T03:38:40.036Z,3.74
2023-02-06T03:41:02.036Z,3.71
2023-02-06T03:43:26.138Z,3.78
2023-02-06T03:45:52.130Z,3.71
2023-02-06T03:48:42.113Z,3.52
2023-02-06T03:51:12.271Z,3.60
2023-02-06T03:53:35.251Z,3.42
2023-02-06T03:56:02.214Z,3.60
2023-02-06T03:58:24.698Z,3.66
2023-02-06T04:00:48.028Z,3.67
2023-02-06T04:03:11.045Z,3.70
2023-02-06T04:05:32.597Z,3.77
2023-02-06T04:07:56.511Z,3.69
2023-02-06T04:10:18.525Z,3.69
2023-02-06T04:12:40.040Z,3.76
2023-02-06T04:15:01.644Z,3.82
2023-02-06T04:17:40.763Z,3.85
2023-02-06T04:20:06.430Z,3.89
2023-02-06T04:22:27.872Z,3.87
2023-02-06T04:24:49.906Z,3.94
2023-02-06T04:27:14.634Z,3.95
2023-02-06T04:29:36.142Z,4.01
2023-02-06T04:32:02.149Z,3.94
2023-02-06T04:34:23.726Z,3.88
2023-02-06T04:36:45.157Z,3.97
2023-02-06T04:39:07.344Z,3.90
2023-02-06T04:41:28.823Z,3.82
2023-02-06T04:43:50.271Z,3.88
2023-02-06T04:46:11.742Z,3.94
2023-02-06T04:48:36.240Z,3.92
2023-02-06T04:50:57.782Z,3.97
2023-02-06T04:53:19.285Z,3.99
2023-02-06T04:55:40.791Z,4.00
2023-02-06T04:58:02.258Z,4.03
2023-02-06T05:00:23.887Z,3.99
2023-02-06T05:02:45.373Z,3.98
2023-02-06T05:05:08.474Z,3.85
2023-02-06T05:07:29.985Z,3.77
2023-02-06T05:09:51.424Z,3.79
2023-02-06T05:12:14.338Z,3.68
2023-02-06T05:14:35.861Z,3.68
2023-02-06T05:16:57.282Z,3.74
2023-02-06T05:19:18.754Z,3.89
2023-02-06T05:21:40.382Z,3.81
2023-02-06T05:24:01.840Z,3.82
2023-02-06T05:26:23.604Z,3.91
2023-02-06T05:28:45.096Z,3.93
2023-02-06T05:31:07.006Z,3.94
2023-02-06T05:33:29.201Z,3.93
2023-02-06T05:35:50.645Z,3.95
2023-02-06T05:38:12.156Z,3.97
2023-02-06T05:40:33.611Z,4.01
2023-02-06T05:42:55.046Z,4.01
2023-02-06T05:45:16.634Z,4.03
2023-02-06T05:47:38.056Z,4.07
2023-02-06T05:49:59.507Z,4.06
2023-02-06T05:52:20.960Z,3.93
2023-02-06T05:54:42.444Z,3.96
2023-02-06T05:57:04.292Z,4.00
2023-02-06T05:59:25.979Z,3.96
2023-02-06T06:01:47.433Z,3.88
2023-02-06T06:04:09.032Z,3.97
2023-02-06T06:06:30.561Z,3.95
2023-02-06T06:08:51.984Z,3.95
2023-02-06T06:11:14.110Z,3.97
2023-02-06T06:13:35.596Z,3.91
2023-02-06T06:15:57.119Z,3.88
2023-02-06T06:18:19.711Z,3.80
2023-02-06T06:20:41.963Z,3.85
2023-02-06T06:23:03.391Z,3.83
2023-02-06T06:25:24.850Z,3.74
2023-02-06T06:27:46.480Z,3.65
2023-02-06T06:30:08.988Z,3.60
2023-02-06T06:32:30.422Z,3.54
2023-02-06T06:34:51.833Z,3.43
2023-02-06T06:37:13.299Z,3.29
2023-02-06T06:39:34.722Z,3.19
2023-02-06T06:41:56.172Z,3.25
2023-02-06T06:44:17.709Z,3.09
2023-02-06T06:46:39.166Z,3.14
2023-02-06T06:49:01.481Z,3.24
2023-02-06T06:51:23.726Z,3.23
2023-02-06T06:53:45.141Z,3.27
2023-02-06T06:56:08.655Z,3.35
2023-02-06T06:58:30.091Z,3.42
2023-02-06T07:00:53.583Z,3.42
2023-02-06T07:03:15.099Z,3.53
2023-02-06T07:05:36.997Z,3.32
2023-02-06T07:07:58.717Z,3.40
2023-02-06T07:10:20.302Z,3.48
2023-02-06T07:12:41.852Z,3.53
2023-02-06T07:15:04.257Z,3.55
2023-02-06T07:17:26.689Z,3.58
2023-02-06T07:19:49.278Z,3.60
2023-02-06T07:22:10.729Z,3.63
2023-02-06T07:24:32.161Z,3.76
2023-02-06T07:26:53.681Z,3.77
2023-02-06T07:29:15.124Z,3.81
2023-02-06T07:31:36.659Z,3.89
2023-02-06T07:33:58.117Z,3.97
2023-02-06T07:36:19.641Z,4.03
2023-02-06T07:38:41.662Z,4.15
2023-02-06T07:41:03.559Z,4.16
2023-02-06T07:43:24.984Z,3.94
2023-02-06T07:45:46.528Z,3.99
2023-02-06T07:48:08.460Z,4.01
2023-02-06T07:50:30.077Z,3.94
2023-02-06T07:52:51.494Z,3.95
2023-02-06T07:55:12.929Z,3.96
2023-02-06T07:57:34.437Z,3.98
2023-02-06T07:59:55.978Z,4.08
2023-02-06T08:02:17.449Z,4.13
2023-02-06T08:04:38.967Z,4.26
2023-02-06T08:07:01.638Z,4.33
2023-02-06T08:09:23.058Z,4.41
2023-02-06T08:11:44.713Z,4.47
2023-02-06T08:14:06.215Z,4.41
2023-02-06T08:16:27.733Z,4.44
2023-02-06T08:18:49.563Z,4.59
2023-02-06T08:21:14.067Z,4.59
2023-02-06T08:23:35.571Z,4.55
2023-02-06T08:26:09.454Z,4.41
2023-02-06T08:28:32.247Z,4.32
2023-02-06T08:30:53.727Z,4.36
2023-02-06T08:33:15.244Z,4.43
2023-02-06T08:35:36.900Z,4.34
2023-02-06T08:37:58.532Z,4.37
2023-02-06T08:40:21.188Z,4.39
2023-02-06T08:42:42.712Z,4.41
2023-02-06T08:45:04.722Z,4.41
2023-02-06T08:47:26.208Z,4.50
2023-02-06T08:49:50.692Z,4.32
2023-02-06T08:52:12.224Z,4.46
2023-02-06T08:54:35.947Z,4.34
2023-02-06T08:57:01.003Z,4.41
2023-02-06T08:59:22.788Z,4.31
2023-02-06T09:01:45.691Z,4.26
2023-02-06T09:04:09.894Z,4.13
2023-02-06T09:06:31.378Z,4.13
2023-02-06T09:08:53.543Z,4.00
2023-02-06T09:11:17.465Z,3.96
2023-02-06T09:13:39.419Z,3.95
2023-02-06T09:16:00.971Z,3.90
2023-02-06T09:18:22.426Z,3.97
2023-02-06T09:20:46.075Z,3.88
2023-02-06T09:23:07.556Z,3.83
2023-02-06T09:25:28.975Z,3.90
2023-02-06T09:27:50.436Z,3.91
2023-02-06T09:30:13.843Z,3.76
2023-02-06T09:32:35.321Z,3.79
2023-02-06T09:34:56.869Z,3.75
2023-02-06T09:37:18.341Z,3.88
2023-02-06T09:39:39.827Z,3.85
2023-02-06T09:42:16.312Z,3.81
2023-02-06T09:44:46.196Z,3.81
2023-02-06T09:47:31.313Z,3.81
2023-02-06T09:49:58.588Z,3.95
2023-02-06T09:52:47.973Z,3.95
2023-02-06T09:55:32.593Z,4.16
2023-02-06T09:58:16.249Z,4.14
2023-02-06T10:00:56.928Z,4.24
2023-02-06T10:03:50.938Z,4.44
2023-02-06T10:06:27.102Z,4.55
2023-02-06T10:08:59.478Z,4.69
2023-02-06T10:11:37.258Z,4.71
2023-02-06T10:14:02.465Z,4.82
2023-02-06T10:16:33.011Z,4.79
2023-02-06T10:19:01.057Z,4.98
2023-02-06T10:21:25.184Z,5.09
2023-02-06T10:23:55.321Z,5.25
2023-02-06T10:26:18.395Z,5.13
2023-02-06T10:28:40.749Z,5.08
2023-02-06T10:31:13.901Z,5.22
2023-02-06T10:34:03.758Z,5.25
2023-02-06T10:36:40.107Z,5.37
2023-02-06T10:39:20.900Z,5.51
2023-02-06T10:42:14.637Z,5.59
2023-02-06T10:45:17.100Z,5.61
2023-02-06T10:47:50.823Z,5.64
2023-02-06T10:50:25.633Z,5.54
2023-02-06T10:52:48.151Z,5.51
2023-02-06T10:55:23.363Z,5.38
2023-02-06T10:57:47.280Z,5.22
2023-02-06T11:00:24.880Z,5.30
2023-02-06T11:03:06.164Z,5.13
2023-02-06T11:05:30.832Z,5.06
2023-02-06T11:07:55.330Z,5.08
2023-02-06T11:10:22.422Z,5.05
2023-02-06T11:12:49.341Z,5.03
2023-02-06T11:15:27.657Z,5.28
2023-02-06T11:17:51.445Z,5.53
2023-02-06T11:20:21.813Z,5.92
2023-02-06T11:22:52.381Z,6.14
2023-02-06T11:25:25.494Z,6.34
2023-02-06T11:27:47.296Z,6.42
2023-02-06T11:30:23.675Z,6.13
2023-02-06T11:32:59.047Z,6.04
2023-02-06T11:35:35.113Z,6.13
2023-02-06T11:38:07.989Z,6.06
2023-02-06T11:40:29.683Z,6.07
2023-02-06T11:43:06.856Z,6.03
2023-02-06T11:45:33.138Z,6.02
2023-02-06T11:47:54.667Z,6.02
2023-02-06T11:50:34.133Z,6.06
2023-02-06T11:53:25.109Z,6.20
2023-02-06T11:55:59.091Z,6.36
2023-02-06T11:58:24.716Z,6.30
2023-02-06T12:00:51.871Z,6.46
2023-02-06T12:03:55.180Z,6.56
2023-02-06T12:06:36.870Z,6.80
2023-02-06T12:09:05.570Z,6.74
2023-02-06T12:11:32.940Z,6.74
2023-02-06T12:14:04.921Z,6.64
2023-02-06T12:16:27.718Z,6.56
2023-02-06T12:18:54.028Z,6.83
2023-02-06T12:21:24.579Z,6.76
2023-02-06T12:23:58.049Z,6.54
2023-02-06T12:26:23.110Z,6.30
2023-02-06T12:29:22.706Z,6.19
2023-02-06T12:31:59.281Z,5.96
2023-02-06T12:34:25.565Z,6.11
2023-02-06T12:37:00.081Z,6.06
2023-02-06T12:39:23.153Z,6.05
2023-02-06T12:42:22.275Z,6.11
2023-02-06T12:44:53.710Z,5.98
2023-02-06T12:47:40.839Z,5.87
2023-02-06T12:50:15.302Z,5.77
2023-02-06T12:52:44.787Z,5.71
2023-02-06T12:55:12.293Z,5.61
2023-02-06T12:57:35.410Z,5.55
2023-02-06T13:00:15.407Z,5.37
2023-02-06T13:02:58.851Z,5.36
2023-02-06T13:05:22.730Z,5.38
2023-02-06T13:07:49.325Z,5.55
2023-02-06T13:10:20.971Z,5.56
2023-02-06T13:12:42.446Z,5.60
2023-02-06T13:15:07.208Z,5.72
2023-02-06T13:17:37.887Z,5.60
2023-02-06T13:20:07.187Z,5.66
2023-02-06T13:22:49.401Z,5.47
2023-02-06T13:25:40.305Z,5.48
2023-02-06T13:28:21.850Z,5.58
2023-02-06T13:30:43.405Z,5.29
2023-02-06T13:33:23.725Z,5.24
2023-02-06T13:36:01.115Z,5.15
2023-02-06T13:38:22.497Z,5.15
2023-02-06T13:40:44.014Z,5.07
2023-02-06T13:43:10.041Z,5.12
2023-02-06T13:45:41.645Z,5.09
2023-02-06T13:48:28.403Z,5.15
2023-02-06T13:51:28.072Z,4.98
2023-02-06T13:54:09.362Z,4.97
2023-02-06T13:57:00.756Z,4.93
2023-02-06T13:59:29.195Z,4.83
2023-02-06T14:01:51.531Z,4.81
2023-02-06T14:04:25.067Z,4.89
2023-02-06T14:07:02.250Z,4.85
2023-02-06T14:09:33.112Z,4.83
2023-02-06T14:12:33.038Z,4.74
2023-02-06T14:15:11.325Z,4.90
2023-02-06T14:18:03.512Z,4.93
2023-02-06T14:20:34.638Z,4.96
2023-02-06T14:23:27.287Z,4.75
2023-02-06T14:25:52.707Z,4.78
2023-02-06T14:28:26.793Z,4.87
2023-02-06T14:31:12.818Z,4.74
2023-02-06T14:33:43.126Z,4.46
2023-02-06T14:36:33.591Z,4.59
2023-02-06T14:39:04.333Z,4.34
2023-02-06T14:41:30.078Z,4.38
2023-02-06T14:43:51.737Z,4.37
2023-02-06T14:46:16.791Z,4.37
2023-02-06T14:48:49.534Z,4.24
2023-02-06T14:51:39.294Z,4.31
2023-02-06T14:54:06.712Z,4.25
2023-02-06T14:56:34.236Z,4.24
2023-02-06T14:58:56.230Z,4.06
2023-02-06T15:01:17.641Z,4.09
2023-02-06T15:03:40.234Z,3.97
2023-02-06T15:06:05.881Z,4.07
2023-02-06T15:08:27.349Z,4.08
2023-02-06T15:10:57.556Z,4.27
2023-02-06T15:13:24.205Z,4.20
2023-02-06T15:15:53.980Z,4.30
2023-02-06T15:18:17.939Z,4.44
2023-02-06T15:20:45.252Z,4.36
2023-02-06T15:23:18.046Z,4.45
2023-02-06T15:26:05.604Z,4.31
2023-02-06T15:28:30.973Z,4.13
2023-02-06T15:30:54.869Z,4.33
2023-02-06T15:33:22.678Z,4.22
2023-02-06T15:35:49.573Z,4.19
2023-02-06T15:38:14.258Z,4.15
2023-02-06T15:40:39.157Z,4.24
2023-02-06T15:43:02.949Z,4.11
2023-02-06T15:45:31.013Z,4.07
2023-02-06T15:47:54.248Z,4.05
2023-02-06T15:50:19.897Z,3.93
2023-02-06T15:52:43.025Z,3.97
2023-02-06T15:55:04.978Z,3.93
2023-02-06T15:57:31.461Z,3.87
2023-02-06T15:59:54.164Z,3.88
2023-02-06T16:02:33.170Z,3.90
2023-02-06T16:04:54.994Z,3.77
2023-02-06T16:07:19.785Z,3.78
2023-02-06T16:09:50.183Z,3.78
2023-02-06T16:12:16.432Z,3.63
2023-02-06T16:14:41.195Z,3.42
2023-02-06T16:17:05.487Z,3.47
2023-02-06T16:19:38.316Z,3.55
2023-02-06T16:22:15.213Z,3.45
2023-02-06T16:24:36.880Z,3.41
2023-02-06T16:27:08.390Z,3.42
2023-02-06T16:29:32.497Z,3.38
2023-02-06T16:32:18.086Z,3.22
2023-02-06T16:34:43.827Z,3.25
2023-02-06T16:37:12.010Z,3.17
2023-02-06T16:39:33.426Z,3.11
2023-02-06T16:41:54.934Z,3.05
2023-02-06T16:44:17.136Z,3.07
2023-02-06T16:46:38.974Z,3.09
2023-02-06T16:49:00.484Z,2.96
2023-02-06T16:51:25.737Z,2.95
2023-02-06T16:53:48.610Z,3.00
2023-02-06T16:56:12.925Z,2.97
2023-02-06T16:58:36.014Z,3.02
2023-02-06T17:00:58.074Z,3.12
2023-02-06T17:03:19.576Z,3.16
2023-02-06T17:05:41.696Z,3.04
2023-02-06T17:08:04.009Z,3.02
2023-02-06T17:10:26.414Z,3.01
2023-02-06T17:12:48.290Z,3.04
2023-02-06T17:15:10.357Z,3.00
2023-02-06T17:17:32.126Z,2.93
2023-02-06T17:19:53.910Z,3.01
2023-02-06T17:22:15.689Z,3.00
2023-02-06T17:24:38.443Z,2.97
2023-02-06T17:27:01.539Z,3.06
2023-02-06T17:29:22.970Z,3.03
2023-02-06T17:31:44.417Z,3.03
2023-02-06T17:34:06.251Z,3.06
2023-02-06T17:36:32.405Z,3.08
2023-02-06T17:38:53.857Z,3.00
2023-02-06T17:41:15.279Z,3.12
2023-02-06T17:43:37.496Z,2.95
2023-02-06T17:45:59.066Z,2.96
2023-02-06T17:48:20.596Z,2.93
2023-02-06T17:50:42.416Z,2.77
2023-02-06T17:53:05.907Z,2.73
2023-02-06T17:55:28.347Z,2.76
2023-02-06T17:57:49.971Z,2.73
2023-02-06T18:00:14.711Z,2.73
2023-02-06T18:02:36.761Z,2.75
2023-02-06T18:04:59.903Z,2.73
2023-02-06T18:07:21.642Z,2.66
2023-02-06T18:09:43.129Z,2.56
2023-02-06T18:12:04.718Z,2.46
2023-02-06T18:14:26.311Z,2.69
2023-02-06T18:16:47.951Z,2.68
2023-02-06T18:19:10.493Z,2.75
2023-02-06T18:21:31.967Z,2.75
2023-02-06T18:23:54.365Z,2.67
2023-02-06T18:26:16.275Z,2.61
2023-02-06T18:28:39.325Z,2.60
2023-02-06T18:31:02.197Z,2.57
2023-02-06T18:33:23.925Z,2.43
2023-02-06T18:35:46.575Z,2.39
2023-02-06T18:38:09.959Z,2.57
2023-02-06T18:40:32.940Z,2.50
2023-02-06T18:42:54.696Z,2.48
2023-02-06T18:45:17.022Z,2.67
2023-02-06T18:47:40.049Z,2.77
2023-02-06T18:50:01.631Z,2.77
2023-02-06T18:52:23.219Z,2.81
2023-02-06T18:54:45.138Z,2.83
2023-02-06T18:57:07.058Z,2.80
2023-02-06T18:59:28.655Z,2.62
2023-02-06T19:01:51.957Z,2.85
2023-02-06T19:04:13.784Z,2.74
2023-02-06T19:06:36.609Z,2.80
2023-02-06T19:08:59.018Z,2.63
2023-02-06T19:11:20.456Z,2.84
2023-02-06T19:13:42.779Z,2.64
2023-02-06T19:16:12.082Z,2.55
2023-02-06T19:18:38.691Z,2.63
2023-02-06T19:21:06.491Z,2.67
2023-02-06T19:23:27.968Z,2.69
2023-02-06T19:25:49.379Z,2.92
2023-02-06T19:28:10.876Z,2.81
2023-02-06T19:30:32.439Z,2.87
2023-02-06T19:32:53.942Z,2.80
2023-02-06T19:35:17.195Z,2.61
2023-02-06T19:37:38.787Z,2.39
2023-02-06T19:40:00.246Z,2.33
2023-02-06T19:42:21.671Z,2.54
2023-02-06T19:44:43.470Z,2.81
2023-02-06T19:47:05.034Z,2.79
2023-02-06T19:49:26.974Z,2.99
2023-02-06T19:51:49.012Z,3.02
2023-02-06T19:54:10.538Z,2.99
2023-02-06T19:56:38.318Z,2.85
2023-02-06T19:59:01.836Z,3.12
2023-02-06T20:01:24.508Z,3.10
2023-02-06T20:03:46.573Z,2.93
2023-02-06T20:06:10.847Z,2.94
2023-02-06T20:08:33.270Z,3.02
2023-02-06T20:10:55.512Z,3.00
2023-02-06T20:13:17.049Z,2.69
2023-02-06T20:15:39.163Z,2.60
2023-02-06T20:18:00.589Z,2.56
2023-02-06T20:20:22.119Z,2.48
2023-02-06T20:22:43.551Z,2.35
2023-02-06T20:25:05.335Z,2.35
2023-02-06T20:27:26.826Z,2.42
2023-02-06T20:29:48.274Z,2.59
2023-02-06T20:32:11.036Z,2.71
2023-02-06T20:34:33.392Z,2.55
2023-02-06T20:36:55.612Z,2.68
2023-02-06T20:39:17.704Z,2.84
2023-02-06T20:41:40.244Z,2.87
2023-02-06T20:44:02.354Z,3.07
2023-02-06T20:46:25.148Z,2.90
2023-02-06T20:48:52.069Z,3.13
2023-02-06T20:51:14.707Z,2.98
2023-02-06T20:53:36.169Z,2.81
2023-02-06T20:55:58.165Z,2.81
2023-02-06T20:58:20.306Z,2.52
2023-02-06T21:00:41.756Z,2.45
2023-02-06T21:03:03.803Z,2.42
2023-02-06T21:05:25.912Z,2.47
2023-02-06T21:07:47.393Z,2.52
2023-02-06T21:10:09.229Z,2.79
2023-02-06T21:12:30.680Z,2.82
2023-02-06T21:14:52.160Z,2.77
2023-02-06T21:17:13.593Z,2.61
2023-02-06T21:19:35.968Z,2.73
2023-02-06T21:21:57.468Z,2.65
2023-02-06T21:24:19.031Z,2.57
2023-02-06T21:26:40.550Z,2.41
2023-02-06T21:29:06.028Z,2.32
2023-02-06T21:31:38.133Z,2.44
2023-02-06T21:34:09.051Z,2.47
2023-02-06T21:36:31.620Z,2.47
2023-02-06T21:38:53.054Z,2.58
2023-02-06T21:41:17.901Z,2.61
2023-02-06T21:43:39.996Z,2.62
2023-02-06T21:46:02.377Z,2.72
2023-02-06T21:48:23.853Z,2.62
2023-02-06T21:50:45.375Z,2.68
2023-02-06T21:53:08.959Z,2.58
2023-02-06T21:55:32.501Z,2.65
2023-02-06T21:57:53.946Z,2.65
2023-02-06T22:00:15.787Z,2.56
2023-02-06T22:02:37.671Z,2.54
2023-02-06T22:05:00.226Z,2.43
2023-02-06T22:07:21.634Z,2.45
2023-02-06T22:09:43.298Z,2.47
2023-02-06T22:12:07.113Z,2.52
2023-02-06T22:14:28.685Z,2.45
2023-02-06T22:16:50.260Z,2.55
2023-02-06T22:19:11.807Z,2.52
2023-02-06T22:21:34.322Z,2.40
2023-02-06T22:23:58.407Z,2.37
2023-02-06T22:26:20.981Z,2.27
2023-02-06T22:28:43.504Z,2.29
2023-02-06T22:31:13.190Z,2.31
2023-02-06T22:33:35.142Z,2.27
2023-02-06T22:35:56.646Z,2.22
2023-02-06T22:38:18.122Z,2.31
2023-02-06T22:40:39.613Z,2.34
2023-02-06T22:43:01.055Z,2.38
2023-02-06T22:45:22.496Z,2.25
2023-02-06T22:47:43.948Z,2.30
2023-02-06T22:50:05.786Z,2.22
2023-02-06T22:52:46.051Z,2.25
2023-02-06T22:55:09.448Z,2.31
2023-02-06T22:57:30.975Z,2.26
2023-02-06T22:59:52.427Z,2.24
2023-02-06T23:02:13.933Z,2.22
2023-02-06T23:04:36.184Z,2.16
2023-02-06T23:06:57.757Z,2.08
2023-02-06T23:09:23.706Z,2.08
2023-02-06T23:11:45.621Z,1.98
2023-02-06T23:14:08.025Z,2.13
2023-02-06T23:16:31.680Z,2.41
2023-02-06T23:18:53.222Z,2.35
2023-02-06T23:21:16.277Z,2.40
2023-02-06T23:23:39.090Z,2.45
2023-02-06T23:26:00.671Z,2.43
2023-02-06T23:28:23.401Z,2.18
2023-02-06T23:30:44.896Z,2.14
2023-02-06T23:33:06.538Z,2.17
2023-02-06T23:35:28.024Z,2.14
2023-02-06T23:37:49.513Z,2.04
2023-02-06T23:40:11.128Z,2.12
2023-02-06T23:42:32.670Z,2.12
2023-02-06T23:44:54.884Z,1.97
2023-02-06T23:47:17.182Z,2.03
2023-02-06T23:49:38.608Z,2.06
2023-02-06T23:52:00.092Z,2.05
2023-02-06T23:54:21.571Z,2.10
2023-02-06T23:56:43.214Z,2.03
2023-02-06T23:59:05.358Z,2.03
